sensor_id;sensor_type;location;lat;lon;timestamp;pressure;altitude;pressure_sealevel;temperature;humidity
59053;BME280;44843;44.728;10.396;2022-12-18T00:00:54;101601.16;;;9.08;100.00
59053;BME280;44843;44.728;10.396;2022-12-18T00:03:20;101603.56;;;9.14;100.00
59053;BME280;44843;44.728;10.396;2022-12-18T00:05:46;101596.28;;;9.24;100.00
59053;BME280;44843;44.728;10.396;2022-12-18T00:08:11;101595.78;;;9.13;100.00
59053;BME280;44843;44.728;10.396;2022-12-18T00:10:36;101588.69;;;9.18;100.00
59053;BME280;44843;44.728;10.396;2022-12-18T00:13:02;101598.63;;;9.05;100.00
59053;BME280;44843;44.728;10.396;2022-12-18T00:15:27;101607.47;;;9.01;100.00
59053;BME280;44843;44.728;10.396;2022-12-18T00:17:52;101608.31;;;9.01;100.00
59053;BME280;44843;44.728;10.396;2022-12-18T00:20:17;101618.91;;;8.95;100.00
59053;BME280;44843;44.728;10.396;2022-12-18T00:22:50;101624.47;;;8.83;100.00
59053;BME280;44843;44.728;10.396;2022-12-18T00:25:15;101617.44;;;8.86;100.00
59053;BME280;44843;44.728;10.396;2022-12-18T00:27:40;101627.56;;;8.96;100.00
59053;BME280;44843;44.728;10.396;2022-12-18T00:30:06;101627.66;;;8.93;100.00
59053;BME280;44843;44.728;10.396;2022-12-18T00:32:32;101623.41;;;8.90;100.00
59053;BME280;44843;44.728;10.396;2022-12-18T00:34:57;101625.88;;;8.95;100.00
59053;BME280;44843;44.728;10.396;2022-12-18T00:37:22;101626.84;;;8.91;100.00
59053;BME280;44843;44.728;10.396;2022-12-18T00:39:48;101621.47;;;8.69;100.00
59053;BME280;44843;44.728;10.396;2022-12-18T00:42:13;101627.63;;;8.66;100.00
59053;BME280;44843;44.728;10.396;2022-12-18T00:44:57;101625.13;;;8.90;100.00
59053;BME280;44843;44.728;10.396;2022-12-18T00:47:23;101630.59;;;8.82;100.00
59053;BME280;44843;44.728;10.396;2022-12-18T00:49:48;101628.16;;;8.77;100.00
59053;BME280;44843;44.728;10.396;2022-12-18T00:52:13;101629.69;;;8.83;100.00
59053;BME280;44843;44.728;10.396;2022-12-18T00:54:38;101623.63;;;8.82;100.00
59053;BME280;44843;44.728;10.396;2022-12-18T00:57:04;101619.94;;;8.90;100.00
59053;BME280;44843;44.728;10.396;2022-12-18T00:59:29;101617.34;;;8.90;100.00
59053;BME280;44843;44.728;10.396;2022-12-18T01:01:55;101625.56;;;9.04;100.00
59053;BME280;44843;44.728;10.396;2022-12-18T01:04:20;101621.81;;;9.13;100.00
59053;BME280;44843;44.728;10.396;2022-12-18T01:06:45;101622.47;;;9.19;100.00
59053;BME280;44843;44.728;10.396;2022-12-18T01:09:11;101620.78;;;9.18;100.00
59053;BME280;44843;44.728;10.396;2022-12-18T01:11:36;101626.88;;;9.17;100.00
59053;BME280;44843;44.728;10.396;2022-12-18T01:14:01;101621.72;;;8.87;100.00
59053;BME280;44843;44.728;10.396;2022-12-18T01:16:26;101626.56;;;9.00;100.00
59053;BME280;44843;44.728;10.396;2022-12-18T01:18:52;101627.47;;;8.99;100.00
59053;BME280;44843;44.728;10.396;2022-12-18T01:21:18;101634.47;;;8.97;100.00
59053;BME280;44843;44.728;10.396;2022-12-18T01:23:44;101632.25;;;8.84;100.00
59053;BME280;44843;44.728;10.396;2022-12-18T01:26:10;101641.66;;;8.89;100.00
59053;BME280;44843;44.728;10.396;2022-12-18T01:28:36;101643.31;;;8.91;100.00
59053;BME280;44843;44.728;10.396;2022-12-18T01:31:09;101645.63;;;8.72;100.00
59053;BME280;44843;44.728;10.396;2022-12-18T01:33:34;101654.22;;;8.74;100.00
59053;BME280;44843;44.728;10.396;2022-12-18T01:35:59;101655.31;;;8.67;100.00
59053;BME280;44843;44.728;10.396;2022-12-18T01:38:25;101661.03;;;8.78;100.00
59053;BME280;44843;44.728;10.396;2022-12-18T01:40:56;101662.56;;;8.85;100.00
59053;BME280;44843;44.728;10.396;2022-12-18T01:43:21;101661.03;;;8.78;100.00
59053;BME280;44843;44.728;10.396;2022-12-18T01:45:46;101661.69;;;8.85;100.00
59053;BME280;44843;44.728;10.396;2022-12-18T01:48:12;101670.94;;;8.95;100.00
59053;BME280;44843;44.728;10.396;2022-12-18T01:50:41;101670.13;;;8.93;100.00
59053;BME280;44843;44.728;10.396;2022-12-18T01:53:11;101678.03;;;8.90;100.00
59053;BME280;44843;44.728;10.396;2022-12-18T01:55:41;101685.91;;;8.87;100.00
59053;BME280;44843;44.728;10.396;2022-12-18T01:58:08;101688.19;;;8.98;100.00
59053;BME280;44843;44.728;10.396;2022-12-18T02:00:33;101691.31;;;9.09;100.00
59053;BME280;44843;44.728;10.396;2022-12-18T02:02:58;101693.09;;;9.07;100.00
59053;BME280;44843;44.728;10.396;2022-12-18T02:05:36;101698.88;;;9.17;100.00
59053;BME280;44843;44.728;10.396;2022-12-18T02:18:23;101730.41;;;9.07;100.00
59053;BME280;44843;44.728;10.396;2022-12-18T02:21:00;101726.38;;;8.97;100.00
59053;BME280;44843;44.728;10.396;2022-12-18T02:28:18;101736.31;;;8.83;100.00
59053;BME280;44843;44.728;10.396;2022-12-18T02:30:45;101736.28;;;8.84;100.00
59053;BME280;44843;44.728;10.396;2022-12-18T02:33:12;101740.69;;;8.82;100.00
59053;BME280;44843;44.728;10.396;2022-12-18T02:35:38;101735.31;;;8.89;100.00
59053;BME280;44843;44.728;10.396;2022-12-18T02:38:05;101738.84;;;8.86;100.00
59053;BME280;44843;44.728;10.396;2022-12-18T02:40:31;101744.94;;;8.85;100.00
59053;BME280;44843;44.728;10.396;2022-12-18T02:43:02;101751.13;;;8.81;100.00
59053;BME280;44843;44.728;10.396;2022-12-18T02:45:27;101745.88;;;8.82;100.00
59053;BME280;44843;44.728;10.396;2022-12-18T02:47:52;101742.31;;;8.86;100.00
59053;BME280;44843;44.728;10.396;2022-12-18T02:50:38;101741.81;;;8.74;100.00
59053;BME280;44843;44.728;10.396;2022-12-18T02:58:09;101734.94;;;9.01;100.00
59053;BME280;44843;44.728;10.396;2022-12-18T03:00:39;101731.53;;;8.99;100.00
59053;BME280;44843;44.728;10.396;2022-12-18T03:03:08;101739.28;;;9.00;100.00
59053;BME280;44843;44.728;10.396;2022-12-18T03:05:36;101741.06;;;8.98;100.00
59053;BME280;44843;44.728;10.396;2022-12-18T03:08:06;101743.69;;;8.98;100.00
59053;BME280;44843;44.728;10.396;2022-12-18T03:10:34;101748.34;;;8.87;100.00
59053;BME280;44843;44.728;10.396;2022-12-18T03:13:03;101754.59;;;8.81;100.00
59053;BME280;44843;44.728;10.396;2022-12-18T03:15:30;101747.03;;;8.72;100.00
59053;BME280;44843;44.728;10.396;2022-12-18T03:18:03;101748.06;;;8.68;100.00
59053;BME280;44843;44.728;10.396;2022-12-18T03:20:29;101761.91;;;8.69;100.00
59053;BME280;44843;44.728;10.396;2022-12-18T03:22:58;101769.63;;;8.70;100.00
59053;BME280;44843;44.728;10.396;2022-12-18T03:25:24;101760.34;;;8.61;100.00
59053;BME280;44843;44.728;10.396;2022-12-18T03:27:51;101755.94;;;8.32;100.00
59053;BME280;44843;44.728;10.396;2022-12-18T03:30:19;101762.44;;;8.16;100.00
59053;BME280;44843;44.728;10.396;2022-12-18T03:35:10;101768.72;;;8.40;100.00
59053;BME280;44843;44.728;10.396;2022-12-18T03:37:37;101769.78;;;8.33;100.00
59053;BME280;44843;44.728;10.396;2022-12-18T03:40:03;101774.84;;;8.37;100.00
59053;BME280;44843;44.728;10.396;2022-12-18T03:42:33;101778.78;;;8.19;100.00
59053;BME280;44843;44.728;10.396;2022-12-18T03:47:53;101772.31;;;8.36;100.00
59053;BME280;44843;44.728;10.396;2022-12-18T03:50:45;101767.81;;;8.42;100.00
59053;BME280;44843;44.728;10.396;2022-12-18T03:53:12;101771.22;;;8.44;100.00
59053;BME280;44843;44.728;10.396;2022-12-18T03:55:39;101774.59;;;8.48;100.00
59053;BME280;44843;44.728;10.396;2022-12-18T03:58:05;101778.25;;;8.39;100.00
59053;BME280;44843;44.728;10.396;2022-12-18T04:00:32;101798.47;;;8.28;100.00
59053;BME280;44843;44.728;10.396;2022-12-18T04:02:59;101803.63;;;8.31;100.00
59053;BME280;44843;44.728;10.396;2022-12-18T04:05:25;101809.81;;;8.25;100.00
59053;BME280;44843;44.728;10.396;2022-12-18T04:07:52;101821.06;;;8.26;100.00
59053;BME280;44843;44.728;10.396;2022-12-18T04:10:18;101815.94;;;8.23;100.00
59053;BME280;44843;44.728;10.396;2022-12-18T04:12:44;101821.31;;;8.15;100.00
59053;BME280;44843;44.728;10.396;2022-12-18T04:15:10;101824.69;;;8.20;100.00
59053;BME280;44843;44.728;10.396;2022-12-18T04:17:35;101830.63;;;8.24;100.00
59053;BME280;44843;44.728;10.396;2022-12-18T04:20:00;101836.00;;;8.18;100.00
59053;BME280;44843;44.728;10.396;2022-12-18T04:22:26;101835.84;;;8.24;100.00
59053;BME280;44843;44.728;10.396;2022-12-18T04:24:51;101830.69;;;8.22;100.00
59053;BME280;44843;44.728;10.396;2022-12-18T04:27:17;101836.09;;;8.13;100.00
59053;BME280;44843;44.728;10.396;2022-12-18T04:29:42;101831.69;;;8.17;100.00
59053;BME280;44843;44.728;10.396;2022-12-18T04:32:08;101848.94;;;8.19;100.00
59053;BME280;44843;44.728;10.396;2022-12-18T04:34:33;101846.31;;;8.21;100.00
59053;BME280;44843;44.728;10.396;2022-12-18T04:36:58;101846.22;;;8.24;100.00
59053;BME280;44843;44.728;10.396;2022-12-18T04:39:24;101847.84;;;8.28;100.00
59053;BME280;44843;44.728;10.396;2022-12-18T04:41:49;101852.69;;;8.43;100.00
59053;BME280;44843;44.728;10.396;2022-12-18T04:44:14;101855.22;;;8.47;100.00
59053;BME280;44843;44.728;10.396;2022-12-18T04:46:39;101854.41;;;8.44;100.00
59053;BME280;44843;44.728;10.396;2022-12-18T04:49:05;101851.94;;;8.38;100.00
59053;BME280;44843;44.728;10.396;2022-12-18T04:51:30;101854.63;;;8.35;100.00
59053;BME280;44843;44.728;10.396;2022-12-18T04:53:55;101855.06;;;8.17;100.00
59053;BME280;44843;44.728;10.396;2022-12-18T04:56:21;101856.69;;;8.22;100.00
59053;BME280;44843;44.728;10.396;2022-12-18T04:58:46;101863.53;;;8.25;100.00
59053;BME280;44843;44.728;10.396;2022-12-18T05:01:12;101866.38;;;8.16;100.00
59053;BME280;44843;44.728;10.396;2022-12-18T05:03:38;101874.19;;;8.16;100.00
59053;BME280;44843;44.728;10.396;2022-12-18T05:06:04;101878.56;;;8.14;100.00
59053;BME280;44843;44.728;10.396;2022-12-18T05:08:29;101877.78;;;8.09;100.00
59053;BME280;44843;44.728;10.396;2022-12-18T05:10:58;101884.97;;;7.99;100.00
59053;BME280;44843;44.728;10.396;2022-12-18T05:13:24;101887.53;;;8.00;100.00
59053;BME280;44843;44.728;10.396;2022-12-18T05:15:51;101884.88;;;8.02;100.00
59053;BME280;44843;44.728;10.396;2022-12-18T05:18:16;101886.00;;;7.92;100.00
59053;BME280;44843;44.728;10.396;2022-12-18T05:20:42;101886.91;;;7.89;100.00
59053;BME280;44843;44.728;10.396;2022-12-18T05:23:07;101892.88;;;7.94;100.00
59053;BME280;44843;44.728;10.396;2022-12-18T05:25:32;101898.13;;;7.91;100.00
59053;BME280;44843;44.728;10.396;2022-12-18T05:27:57;101899.75;;;7.95;100.00
59053;BME280;44843;44.728;10.396;2022-12-18T05:30:23;101890.22;;;7.96;100.00
59053;BME280;44843;44.728;10.396;2022-12-18T05:32:48;101900.56;;;7.97;100.00
59053;BME280;44843;44.728;10.396;2022-12-18T05:35:13;101901.16;;;8.09;100.00
59053;BME280;44843;44.728;10.396;2022-12-18T05:37:38;101907.94;;;8.16;100.00
59053;BME280;44843;44.728;10.396;2022-12-18T05:40:04;101913.19;;;8.13;100.00
59053;BME280;44843;44.728;10.396;2022-12-18T05:42:30;101929.09;;;8.00;100.00
59053;BME280;44843;44.728;10.396;2022-12-18T05:44:55;101931.69;;;8.00;100.00
59053;BME280;44843;44.728;10.396;2022-12-18T05:47:20;101939.50;;;7.99;100.00
59053;BME280;44843;44.728;10.396;2022-12-18T05:49:46;101936.19;;;7.94;100.00
59053;BME280;44843;44.728;10.396;2022-12-18T05:52:11;101938.72;;;7.95;100.00
59053;BME280;44843;44.728;10.396;2022-12-18T05:54:36;101928.75;;;7.77;100.00
59053;BME280;44843;44.728;10.396;2022-12-18T05:57:01;101924.72;;;7.63;100.00
59053;BME280;44843;44.728;10.396;2022-12-18T05:59:27;101937.63;;;7.67;100.00
59053;BME280;44843;44.728;10.396;2022-12-18T06:01:52;101947.06;;;7.69;100.00
59053;BME280;44843;44.728;10.396;2022-12-18T06:04:17;101954.75;;;7.75;100.00
59053;BME280;44843;44.728;10.396;2022-12-18T06:06:42;101963.28;;;7.80;100.00
59053;BME280;44843;44.728;10.396;2022-12-18T06:09:08;101959.00;;;7.79;100.00
59053;BME280;44843;44.728;10.396;2022-12-18T06:11:35;101950.34;;;7.79;100.00
59053;BME280;44843;44.728;10.396;2022-12-18T06:14:01;101952.13;;;7.77;100.00
59053;BME280;44843;44.728;10.396;2022-12-18T06:16:27;101954.84;;;7.71;100.00
59053;BME280;44843;44.728;10.396;2022-12-18T06:18:53;101964.34;;;7.72;100.00
59053;BME280;44843;44.728;10.396;2022-12-18T06:21:18;101969.69;;;7.66;100.00
59053;BME280;44843;44.728;10.396;2022-12-18T06:23:43;101971.94;;;7.81;100.00
59053;BME280;44843;44.728;10.396;2022-12-18T06:26:09;101980.50;;;7.84;100.00
59053;BME280;44843;44.728;10.396;2022-12-18T06:28:35;101982.88;;;7.95;100.00
59053;BME280;44843;44.728;10.396;2022-12-18T06:31:01;101976.81;;;7.96;100.00
59053;BME280;44843;44.728;10.396;2022-12-18T06:33:27;101976.19;;;7.85;100.00
59053;BME280;44843;44.728;10.396;2022-12-18T06:35:53;101986.00;;;7.71;100.00
59053;BME280;44843;44.728;10.396;2022-12-18T06:38:18;101996.47;;;7.68;100.00
59053;BME280;44843;44.728;10.396;2022-12-18T06:40:44;101996.50;;;7.64;100.00
59053;BME280;44843;44.728;10.396;2022-12-18T06:43:09;102003.59;;;7.56;100.00
59053;BME280;44843;44.728;10.396;2022-12-18T06:45:34;102013.84;;;7.62;100.00
59053;BME280;44843;44.728;10.396;2022-12-18T06:47:59;102018.22;;;7.60;100.00
59053;BME280;44843;44.728;10.396;2022-12-18T06:50:25;102020.91;;;7.57;100.00
59053;BME280;44843;44.728;10.396;2022-12-18T06:52:50;102021.00;;;7.51;100.00
59053;BME280;44843;44.728;10.396;2022-12-18T06:55:15;102026.16;;;7.54;100.00
59053;BME280;44843;44.728;10.396;2022-12-18T06:57:40;102039.19;;;7.50;100.00
59053;BME280;44843;44.728;10.396;2022-12-18T07:00:06;102041.75;;;7.53;100.00
59053;BME280;44843;44.728;10.396;2022-12-18T07:02:31;102034.91;;;7.49;100.00
59053;BME280;44843;44.728;10.396;2022-12-18T07:04:57;102037.56;;;7.46;100.00
59053;BME280;44843;44.728;10.396;2022-12-18T07:07:22;102038.38;;;7.48;100.00
59053;BME280;44843;44.728;10.396;2022-12-18T07:09:49;102039.34;;;7.43;100.00
59053;BME280;44843;44.728;10.396;2022-12-18T07:12:14;102041.88;;;7.45;100.00
59053;BME280;44843;44.728;10.396;2022-12-18T07:14:39;102038.63;;;7.34;100.00
59053;BME280;44843;44.728;10.396;2022-12-18T07:17:05;102040.28;;;7.39;100.00
59053;BME280;44843;44.728;10.396;2022-12-18T07:19:30;102040.00;;;7.55;100.00
59053;BME280;44843;44.728;10.396;2022-12-18T07:21:55;102045.91;;;7.61;100.00
59053;BME280;44843;44.728;10.396;2022-12-18T07:24:20;102043.13;;;7.71;100.00
59053;BME280;44843;44.728;10.396;2022-12-18T07:26:46;102054.31;;;7.74;100.00
59053;BME280;44843;44.728;10.396;2022-12-18T07:29:11;102054.41;;;7.70;100.00
59053;BME280;44843;44.728;10.396;2022-12-18T07:31:36;102059.94;;;7.51;100.00
59053;BME280;44843;44.728;10.396;2022-12-18T07:34:02;102066.16;;;7.44;100.00
59053;BME280;44843;44.728;10.396;2022-12-18T07:36:27;102064.47;;;7.41;100.00
59053;BME280;44843;44.728;10.396;2022-12-18T07:38:52;102067.81;;;7.48;100.00
59053;BME280;44843;44.728;10.396;2022-12-18T07:41:18;102076.41;;;7.50;100.00
59053;BME280;44843;44.728;10.396;2022-12-18T07:43:44;102079.88;;;7.49;100.00
59053;BME280;44843;44.728;10.396;2022-12-18T07:46:09;102079.84;;;7.52;100.00
59053;BME280;44843;44.728;10.396;2022-12-18T07:48:34;102086.66;;;7.58;100.00
59053;BME280;44843;44.728;10.396;2022-12-18T07:51:04;102079.88;;;7.49;100.00
59053;BME280;44843;44.728;10.396;2022-12-18T07:53:29;102087.66;;;7.49;100.00
59053;BME280;44843;44.728;10.396;2022-12-18T07:55:58;102087.53;;;7.57;100.00
59053;BME280;44843;44.728;10.396;2022-12-18T07:58:24;102096.25;;;7.54;100.00
59053;BME280;44843;44.728;10.396;2022-12-18T08:00:49;102100.38;;;7.64;100.00
59053;BME280;44843;44.728;10.396;2022-12-18T08:03:14;102104.72;;;7.62;100.00
59053;BME280;44843;44.728;10.396;2022-12-18T08:05:40;102111.59;;;7.67;100.00
59053;BME280;44843;44.728;10.396;2022-12-18T08:08:05;102117.59;;;7.69;100.00
59053;BME280;44843;44.728;10.396;2022-12-18T08:10:30;102117.38;;;7.81;100.00
59053;BME280;44843;44.728;10.396;2022-12-18T08:12:55;102121.63;;;7.85;100.00
59053;BME280;44843;44.728;10.396;2022-12-18T08:15:21;102131.00;;;7.92;100.00
59053;BME280;44843;44.728;10.396;2022-12-18T08:17:46;102136.09;;;7.98;100.00
59053;BME280;44843;44.728;10.396;2022-12-18T08:20:11;102138.72;;;7.97;100.00
59053;BME280;44843;44.728;10.396;2022-12-18T08:22:38;102143.00;;;7.99;100.00
59053;BME280;44843;44.728;10.396;2022-12-18T08:25:04;102151.03;;;7.87;100.00
59053;BME280;44843;44.728;10.396;2022-12-18T08:27:29;102160.47;;;7.91;100.00
59053;BME280;44843;44.728;10.396;2022-12-18T08:29:55;102158.88;;;7.84;100.00
59053;BME280;44843;44.728;10.396;2022-12-18T08:32:20;102160.50;;;7.90;100.00
59053;BME280;44843;44.728;10.396;2022-12-18T08:34:45;102169.25;;;7.86;100.00
59053;BME280;44843;44.728;10.396;2022-12-18T08:37:10;102176.00;;;7.94;100.00
59053;BME280;44843;44.728;10.396;2022-12-18T08:39:36;102179.47;;;7.93;100.00
59053;BME280;44843;44.728;10.396;2022-12-18T08:42:01;102182.91;;;7.95;100.00
59053;BME280;44843;44.728;10.396;2022-12-18T08:44:45;102182.91;;;7.95;100.00
59053;BME280;44843;44.728;10.396;2022-12-18T08:47:10;102182.03;;;7.96;100.00
59053;BME280;44843;44.728;10.396;2022-12-18T08:49:36;102189.84;;;7.93;100.00
59053;BME280;44843;44.728;10.396;2022-12-18T08:52:01;102190.56;;;8.03;100.00
59053;BME280;44843;44.728;10.396;2022-12-18T08:54:28;102183.53;;;8.07;100.00
59053;BME280;44843;44.728;10.396;2022-12-18T08:56:54;102185.31;;;8.04;100.00
59053;BME280;44843;44.728;10.396;2022-12-18T08:59:19;102187.88;;;8.06;100.00
59053;BME280;44843;44.728;10.396;2022-12-18T09:01:45;102187.81;;;8.11;100.00
59053;BME280;44843;44.728;10.396;2022-12-18T09:04:11;102194.53;;;8.21;100.00
59053;BME280;44843;44.728;10.396;2022-12-18T09:06:36;102193.59;;;8.25;100.00
59053;BME280;44843;44.728;10.396;2022-12-18T09:09:02;102196.00;;;8.34;100.00
59053;BME280;44843;44.728;10.396;2022-12-18T09:11:28;102208.28;;;8.28;100.00
59053;BME280;44843;44.728;10.396;2022-12-18T09:13:54;102205.69;;;8.26;100.00
59053;BME280;44843;44.728;10.396;2022-12-18T09:16:20;102203.16;;;8.24;100.00
59053;BME280;44843;44.728;10.396;2022-12-18T09:18:45;102212.63;;;8.27;100.00
59053;BME280;44843;44.728;10.396;2022-12-18T09:21:18;102209.28;;;8.20;100.00
59053;BME280;44843;44.728;10.396;2022-12-18T09:23:48;102210.97;;;8.21;100.00
59053;BME280;44843;44.728;10.396;2022-12-18T09:26:14;102205.91;;;8.15;100.00
59053;BME280;44843;44.728;10.396;2022-12-18T09:28:39;102211.88;;;8.20;100.00
59053;BME280;44843;44.728;10.396;2022-12-18T09:31:06;102208.38;;;8.23;100.00
59053;BME280;44843;44.728;10.396;2022-12-18T09:33:32;102213.84;;;8.08;100.00
59053;BME280;44843;44.728;10.396;2022-12-18T09:35:57;102204.09;;;8.20;100.00
59053;BME280;44843;44.728;10.396;2022-12-18T09:38:22;102209.38;;;8.16;100.00
59053;BME280;44843;44.728;10.396;2022-12-18T09:40:52;102211.91;;;8.19;100.00
59053;BME280;44843;44.728;10.396;2022-12-18T09:43:33;102202.25;;;8.25;100.00
59053;BME280;44843;44.728;10.396;2022-12-18T09:46:05;102199.91;;;8.12;100.00
59053;BME280;44843;44.728;10.396;2022-12-18T09:48:32;102188.50;;;8.20;100.00
59053;BME280;44843;44.728;10.396;2022-12-18T09:51:03;102197.97;;;8.23;100.00
59053;BME280;44843;44.728;10.396;2022-12-18T09:53:33;102194.47;;;8.24;100.00
59053;BME280;44843;44.728;10.396;2022-12-18T09:56:01;102190.66;;;8.43;100.00
59053;BME280;44843;44.728;10.396;2022-12-18T09:58:33;102188.75;;;8.52;100.00
59053;BME280;44843;44.728;10.396;2022-12-18T10:01:01;102188.38;;;8.27;100.00
59053;BME280;44843;44.728;10.396;2022-12-18T10:03:26;102195.66;;;8.09;100.00
59053;BME280;44843;44.728;10.396;2022-12-18T10:05:59;102195.38;;;8.23;100.00
59053;BME280;44843;44.728;10.396;2022-12-18T10:10:53;102194.31;;;8.33;100.00
59053;BME280;44843;44.728;10.396;2022-12-18T10:16:43;102187.19;;;8.43;100.00
59053;BME280;44843;44.728;10.396;2022-12-18T10:21:26;102191.63;;;8.38;100.00
59053;BME280;44843;44.728;10.396;2022-12-18T10:26:26;102184.75;;;8.34;100.00
59053;BME280;44843;44.728;10.396;2022-12-18T10:46:36;102177.53;;;8.48;100.00
59053;BME280;44843;44.728;10.396;2022-12-18T10:49:02;102181.69;;;8.57;100.00
59053;BME280;44843;44.728;10.396;2022-12-18T10:51:28;102186.16;;;8.52;100.00
59053;BME280;44843;44.728;10.396;2022-12-18T10:53:59;102186.94;;;8.55;100.00
59053;BME280;44843;44.728;10.396;2022-12-18T10:56:26;102186.13;;;8.53;100.00
59053;BME280;44843;44.728;10.396;2022-12-18T10:59:11;102192.38;;;8.44;100.00
59053;BME280;44843;44.728;10.396;2022-12-18T11:01:52;102190.72;;;8.37;100.00
59053;BME280;44843;44.728;10.396;2022-12-18T11:04:27;102183.75;;;8.42;100.00
59053;BME280;44843;44.728;10.396;2022-12-18T11:07:03;102178.56;;;8.41;100.00
59053;BME280;44843;44.728;10.396;2022-12-18T11:09:29;102177.63;;;8.45;100.00
59053;BME280;44843;44.728;10.396;2022-12-18T11:11:57;102187.94;;;8.48;100.00
59053;BME280;44843;44.728;10.396;2022-12-18T11:14:34;102191.34;;;8.52;100.00
59053;BME280;44843;44.728;10.396;2022-12-18T11:17:00;102190.41;;;8.56;100.00
59053;BME280;44843;44.728;10.396;2022-12-18T11:19:28;102183.69;;;8.45;100.00
59053;BME280;44843;44.728;10.396;2022-12-18T11:21:55;102192.25;;;8.51;100.00
59053;BME280;44843;44.728;10.396;2022-12-18T11:24:31;102191.13;;;8.62;100.00
59053;BME280;44843;44.728;10.396;2022-12-18T11:27:06;102186.81;;;8.61;100.00
59053;BME280;44843;44.728;10.396;2022-12-18T11:29:40;102184.28;;;8.58;100.00
59053;BME280;44843;44.728;10.396;2022-12-18T11:34:41;102183.09;;;8.73;100.00
59053;BME280;44843;44.728;10.396;2022-12-18T11:37:08;102177.56;;;8.89;100.00
59053;BME280;44843;44.728;10.396;2022-12-18T11:39:38;102173.09;;;8.94;100.00
59053;BME280;44843;44.728;10.396;2022-12-18T11:42:08;102164.53;;;8.89;100.00
59053;BME280;44843;44.728;10.396;2022-12-18T11:49:55;102157.81;;;8.80;100.00
59053;BME280;44843;44.728;10.396;2022-12-18T11:52:25;102160.97;;;8.54;100.00
59053;BME280;44843;44.728;10.396;2022-12-18T11:54:54;102167.75;;;8.61;100.00
59053;BME280;44843;44.728;10.396;2022-12-18T12:02:34;102171.16;;;8.64;100.00
59053;BME280;44843;44.728;10.396;2022-12-18T12:08:01;102162.16;;;8.79;100.00
59053;BME280;44843;44.728;10.396;2022-12-18T12:25:46;102162.56;;;8.98;100.00
59053;BME280;44843;44.728;10.396;2022-12-18T12:28:15;102163.59;;;8.93;100.00
59053;BME280;44843;44.728;10.396;2022-12-18T12:31:07;102163.63;;;8.90;100.00
59053;BME280;44843;44.728;10.396;2022-12-18T12:38:52;102161.25;;;8.80;100.00
59053;BME280;44843;44.728;10.396;2022-12-18T12:41:21;102165.97;;;8.63;100.00
59053;BME280;44843;44.728;10.396;2022-12-18T12:44:07;102156.34;;;8.68;100.00
59053;BME280;44843;44.728;10.396;2022-12-18T12:46:35;102154.63;;;8.65;100.00
59053;BME280;44843;44.728;10.396;2022-12-18T12:49:03;102160.75;;;8.64;100.00
59053;BME280;44843;44.728;10.396;2022-12-18T12:51:33;102155.41;;;8.71;100.00
59053;BME280;44843;44.728;10.396;2022-12-18T12:53:59;102158.72;;;8.77;100.00
59053;BME280;44843;44.728;10.396;2022-12-18T12:56:29;102154.13;;;8.89;100.00
59053;BME280;44843;44.728;10.396;2022-12-18T13:01:34;102160.03;;;8.97;100.00
59053;BME280;44843;44.728;10.396;2022-12-18T13:04:12;102152.34;;;8.91;100.00
59053;BME280;44843;44.728;10.396;2022-12-18T13:06:46;102149.16;;;8.79;100.00
59053;BME280;44843;44.728;10.396;2022-12-18T13:09:12;102144.91;;;8.75;100.00
59053;BME280;44843;44.728;10.396;2022-12-18T13:14:33;102137.94;;;8.76;100.00
59053;BME280;44843;44.728;10.396;2022-12-18T13:17:15;102136.31;;;8.70;100.00
59053;BME280;44843;44.728;10.396;2022-12-18T13:19:41;102134.56;;;8.72;100.00
59053;BME280;44843;44.728;10.396;2022-12-18T13:22:19;102131.22;;;8.67;100.00
59053;BME280;44843;44.728;10.396;2022-12-18T13:24:45;102133.13;;;8.59;100.00
59053;BME280;44843;44.728;10.396;2022-12-18T13:29:54;102136.44;;;8.65;100.00
59053;BME280;44843;44.728;10.396;2022-12-18T13:32:20;102131.53;;;8.53;100.00
59053;BME280;44843;44.728;10.396;2022-12-18T13:34:45;102136.78;;;8.50;100.00
59053;BME280;44843;44.728;10.396;2022-12-18T13:39:55;102145.28;;;8.57;100.00
59053;BME280;44843;44.728;10.396;2022-12-18T13:47:51;102149.03;;;8.84;100.00
59053;BME280;44843;44.728;10.396;2022-12-18T13:50:25;102143.81;;;8.85;100.00
59053;BME280;44843;44.728;10.396;2022-12-18T13:52:50;102146.34;;;8.87;100.00
59053;BME280;44843;44.728;10.396;2022-12-18T13:55:18;102142.22;;;8.78;100.00
59053;BME280;44843;44.728;10.396;2022-12-18T13:57:43;102139.00;;;8.69;100.00
59053;BME280;44843;44.728;10.396;2022-12-18T14:02:44;102138.13;;;8.68;100.00
59053;BME280;44843;44.728;10.396;2022-12-18T14:05:21;102145.13;;;8.66;100.00
59053;BME280;44843;44.728;10.396;2022-12-18T14:07:46;102150.44;;;8.60;100.00
59053;BME280;44843;44.728;10.396;2022-12-18T14:10:11;102147.78;;;8.61;100.00
59053;BME280;44843;44.728;10.396;2022-12-18T14:12:38;102144.44;;;8.56;100.00
59053;BME280;44843;44.728;10.396;2022-12-18T14:18:00;102141.81;;;8.58;100.00
59053;BME280;44843;44.728;10.396;2022-12-18T14:20:26;102150.50;;;8.57;100.00
59053;BME280;44843;44.728;10.396;2022-12-18T14:25:30;102144.66;;;8.47;100.00
59053;BME280;44843;44.728;10.396;2022-12-18T14:30:42;102135.81;;;8.54;100.00
59053;BME280;44843;44.728;10.396;2022-12-18T14:33:13;102136.00;;;8.47;100.00
59053;BME280;44843;44.728;10.396;2022-12-18T14:35:43;102133.94;;;8.61;100.00
59053;BME280;44843;44.728;10.396;2022-12-18T14:38:23;102130.34;;;8.68;100.00